sensor_id;sensor_type;location;lat;lon;timestamp;pressure;altitude;pressure_sealevel;temperature;humidity
4858;BME280;58975;51.978;8.472;2022-07-09T00:00:18;101415.47;;;15.95;100.00
4858;BME280;58975;51.978;8.472;2022-07-09T00:05:14;101410.09;;;15.95;100.00
4858;BME280;58975;51.978;8.472;2022-07-09T00:10:13;101408.31;;;15.84;100.00
4858;BME280;58975;51.978;8.472;2022-07-09T00:15:09;101408.41;;;15.73;100.00
4858;BME280;58975;51.978;8.472;2022-07-09T00:20:06;101405.09;;;15.60;100.00
4858;BME280;58975;51.978;8.472;2022-07-09T00:25:03;101406.72;;;15.51;100.00
4858;BME280;58975;51.978;8.472;2022-07-09T00:30:01;101408.03;;;15.46;100.00
4858;BME280;58975;51.978;8.472;2022-07-09T00:34:57;101404.09;;;15.29;100.00
4858;BME280;58975;51.978;8.472;2022-07-09T00:39:53;101397.34;;;15.14;100.00
4858;BME280;58975;51.978;8.472;2022-07-09T00:44:50;101401.25;;;15.10;100.00
4858;BME280;58975;51.978;8.472;2022-07-09T00:49:47;101394.44;;;15.06;100.00
4858;BME280;58975;51.978;8.472;2022-07-09T00:54:44;101393.50;;;14.96;100.00
4858;BME280;58975;51.978;8.472;2022-07-09T00:59:42;101401.44;;;14.97;100.00
4858;BME280;58975;51.978;8.472;2022-07-09T01:04:38;101404.13;;;14.97;100.00
4858;BME280;58975;51.978;8.472;2022-07-09T01:09:35;101408.19;;;14.81;100.00
4858;BME280;58975;51.978;8.472;2022-07-09T01:14:32;101416.00;;;14.73;100.00
4858;BME280;58975;51.978;8.472;2022-07-09T01:19:30;101416.03;;;14.61;100.00
4858;BME280;58975;51.978;8.472;2022-07-09T01:24:26;101410.19;;;14.56;100.00
4858;BME280;58975;51.978;8.472;2022-07-09T01:29:23;101414.09;;;14.52;100.00
4858;BME280;58975;51.978;8.472;2022-07-09T01:34:20;101413.13;;;14.53;100.00
4858;BME280;58975;51.978;8.472;2022-07-09T01:39:16;101407.16;;;14.50;100.00
4858;BME280;58975;51.978;8.472;2022-07-09T01:44:13;101409.94;;;14.59;100.00
4858;BME280;58975;51.978;8.472;2022-07-09T01:49:09;101409.69;;;14.51;100.00
4858;BME280;58975;51.978;8.472;2022-07-09T01:54:05;101416.78;;;14.52;100.00
4858;BME280;58975;51.978;8.472;2022-07-09T01:59:02;101414.06;;;14.63;100.00
4858;BME280;58975;51.978;8.472;2022-07-09T02:03:58;101406.78;;;14.65;100.00
4858;BME280;58975;51.978;8.472;2022-07-09T02:08:55;101420.41;;;14.74;100.00
4858;BME280;58975;51.978;8.472;2022-07-09T02:13:51;101418.19;;;14.79;100.00
4858;BME280;58975;51.978;8.472;2022-07-09T02:18:48;101422.19;;;14.84;100.00
4858;BME280;58975;51.978;8.472;2022-07-09T02:23:45;101425.38;;;14.89;100.00
4858;BME280;58975;51.978;8.472;2022-07-09T02:28:41;101433.63;;;14.97;100.00
4858;BME280;58975;51.978;8.472;2022-07-09T02:33:38;101429.09;;;14.98;100.00
4858;BME280;58975;51.978;8.472;2022-07-09T02:38:34;101430.81;;;14.99;100.00
4858;BME280;58975;51.978;8.472;2022-07-09T02:43:32;101421.78;;;15.00;100.00
4858;BME280;58975;51.978;8.472;2022-07-09T02:48:28;101423.72;;;14.98;100.00
4858;BME280;58975;51.978;8.472;2022-07-09T02:53:25;101424.47;;;15.00;100.00
4858;BME280;58975;51.978;8.472;2022-07-09T02:58:21;101422.75;;;14.99;100.00
4858;BME280;58975;51.978;8.472;2022-07-09T03:03:18;101421.78;;;15.00;100.00
4858;BME280;58975;51.978;8.472;2022-07-09T03:08:14;101426.91;;;15.03;100.00
4858;BME280;58975;51.978;8.472;2022-07-09T03:13:11;101420.94;;;14.99;100.00
4858;BME280;58975;51.978;8.472;2022-07-09T03:18:08;101426.03;;;15.02;100.00
4858;BME280;58975;51.978;8.472;2022-07-09T03:23:05;101414.44;;;15.02;100.00
4858;BME280;58975;51.978;8.472;2022-07-09T03:28:02;101428.13;;;14.99;100.00
4858;BME280;58975;51.978;8.472;2022-07-09T03:32:58;101412.03;;;14.99;100.00
4858;BME280;58975;51.978;8.472;2022-07-09T03:37:54;101421.69;;;15.01;100.00
4858;BME280;58975;51.978;8.472;2022-07-09T03:42:51;101418.00;;;15.02;100.00
4858;BME280;58975;51.978;8.472;2022-07-09T03:47:48;101416.91;;;15.05;100.00
4858;BME280;58975;51.978;8.472;2022-07-09T03:52:44;101411.38;;;15.06;100.00
4858;BME280;58975;51.978;8.472;2022-07-09T03:57:41;101404.69;;;15.12;100.00
4858;BME280;58975;51.978;8.472;2022-07-09T04:02:39;101399.31;;;15.12;100.00
4858;BME280;58975;51.978;8.472;2022-07-09T04:07:35;101389.06;;;15.17;100.00
4858;BME280;58975;51.978;8.472;2022-07-09T04:12:32;101389.28;;;15.14;100.00
4858;BME280;58975;51.978;8.472;2022-07-09T04:17:29;101388.78;;;15.20;100.00
4858;BME280;58975;51.978;8.472;2022-07-09T04:22:25;101380.47;;;15.23;100.00
4858;BME280;58975;51.978;8.472;2022-07-09T04:27:27;101379.03;;;15.19;100.00
4858;BME280;58975;51.978;8.472;2022-07-09T04:32:24;101375.09;;;15.23;100.00
4858;BME280;58975;51.978;8.472;2022-07-09T04:37:20;101384.41;;;15.19;100.00
4858;BME280;58975;51.978;8.472;2022-07-09T04:42:17;101382.69;;;15.18;100.00
4858;BME280;58975;51.978;8.472;2022-07-09T04:47:13;101385.84;;;15.23;100.00
4858;BME280;58975;51.978;8.472;2022-07-09T04:52:10;101386.53;;;15.25;100.00
4858;BME280;58975;51.978;8.472;2022-07-09T04:57:07;101392.13;;;15.33;100.00
4858;BME280;58975;51.978;8.472;2022-07-09T05:02:03;101393.06;;;15.43;100.00
4858;BME280;58975;51.978;8.472;2022-07-09T05:07:00;101386.09;;;15.52;100.00
4858;BME280;58975;51.978;8.472;2022-07-09T05:11:56;101377.66;;;15.45;100.00
4858;BME280;58975;51.978;8.472;2022-07-09T05:16:53;101385.84;;;15.44;100.00
4858;BME280;58975;51.978;8.472;2022-07-09T05:21:49;101382.81;;;15.37;100.00
4858;BME280;58975;51.978;8.472;2022-07-09T05:26:46;101379.69;;;15.32;100.00
4858;BME280;58975;51.978;8.472;2022-07-09T05:31:42;101372.34;;;15.34;100.00
4858;BME280;58975;51.978;8.472;2022-07-09T05:36:39;101371.59;;;15.43;100.00
4858;BME280;58975;51.978;8.472;2022-07-09T05:41:35;101348.72;;;15.49;100.00
4858;BME280;58975;51.978;8.472;2022-07-09T05:46:32;101341.75;;;15.57;100.00
4858;BME280;58975;51.978;8.472;2022-07-09T05:51:29;101359.44;;;15.49;100.00
4858;BME280;58975;51.978;8.472;2022-07-09T05:56:26;101350.25;;;15.63;100.00
4858;BME280;58975;51.978;8.472;2022-07-09T06:01:22;101346.34;;;15.76;100.00
4858;BME280;58975;51.978;8.472;2022-07-09T06:06:22;101340.75;;;15.89;100.00
4858;BME280;58975;51.978;8.472;2022-07-09T06:11:19;101326.47;;;15.79;100.00
4858;BME280;58975;51.978;8.472;2022-07-09T06:16:15;101321.25;;;15.87;100.00
4858;BME280;58975;51.978;8.472;2022-07-09T06:21:12;101312.00;;;16.10;100.00
4858;BME280;58975;51.978;8.472;2022-07-09T06:26:08;101310.47;;;16.17;100.00
4858;BME280;58975;51.978;8.472;2022-07-09T06:31:05;101297.06;;;16.36;100.00
4858;BME280;58975;51.978;8.472;2022-07-09T06:36:02;101286.22;;;16.67;100.00
4858;BME280;58975;51.978;8.472;2022-07-09T06:40:58;101280.13;;;16.45;100.00
4858;BME280;58975;51.978;8.472;2022-07-09T06:45:54;101284.91;;;16.32;100.00
4858;BME280;58975;51.978;8.472;2022-07-09T06:50:51;101279.06;;;16.27;100.00
4858;BME280;58975;51.978;8.472;2022-07-09T06:55:48;101279.19;;;16.66;100.00
4858;BME280;58975;51.978;8.472;2022-07-09T07:00:44;101272.06;;;17.03;100.00
4858;BME280;58975;51.978;8.472;2022-07-09T07:05:41;101269.25;;;17.51;100.00
4858;BME280;58975;51.978;8.472;2022-07-09T07:10:37;101263.31;;;17.47;100.00
4858;BME280;58975;51.978;8.472;2022-07-09T07:15:38;101269.56;;;17.38;100.00
4858;BME280;58975;51.978;8.472;2022-07-09T07:20:35;101270.06;;;17.24;100.00
4858;BME280;58975;51.978;8.472;2022-07-09T07:25:32;101267.22;;;17.72;100.00
4858;BME280;58975;51.978;8.472;2022-07-09T07:30:28;101282.16;;;17.94;100.00
4858;BME280;58975;51.978;8.472;2022-07-09T07:35:29;101274.94;;;17.58;100.00
4858;BME280;58975;51.978;8.472;2022-07-09T07:40:26;101266.53;;;17.70;100.00
4858;BME280;58975;51.978;8.472;2022-07-09T07:45:22;101253.88;;;18.25;100.00
4858;BME280;58975;51.978;8.472;2022-07-09T07:50:20;101258.13;;;18.46;100.00
4858;BME280;58975;51.978;8.472;2022-07-09T07:55:17;101254.19;;;18.40;100.00
4858;BME280;58975;51.978;8.472;2022-07-09T08:00:13;101250.66;;;18.39;100.00
4858;BME280;58975;51.978;8.472;2022-07-09T08:05:10;101260.88;;;19.24;100.00
4858;BME280;58975;51.978;8.472;2022-07-09T08:10:07;101261.59;;;19.09;100.00
4858;BME280;58975;51.978;8.472;2022-07-09T08:15:04;101267.31;;;18.88;100.00
4858;BME280;58975;51.978;8.472;2022-07-09T08:20:01;101253.81;;;19.31;100.00
4858;BME280;58975;51.978;8.472;2022-07-09T08:24:57;101257.09;;;18.74;100.00
4858;BME280;58975;51.978;8.472;2022-07-09T08:29:53;101248.16;;;18.73;100.00
4858;BME280;58975;51.978;8.472;2022-07-09T08:34:50;101249.53;;;18.60;100.00
4858;BME280;58975;51.978;8.472;2022-07-09T08:39:46;101260.66;;;18.29;100.00
4858;BME280;58975;51.978;8.472;2022-07-09T08:44:46;101246.97;;;18.40;100.00
4858;BME280;58975;51.978;8.472;2022-07-09T08:49:43;101245.53;;;18.81;100.00
4858;BME280;58975;51.978;8.472;2022-07-09T08:54:42;101234.97;;;19.40;100.00
4858;BME280;58975;51.978;8.472;2022-07-09T08:59:39;101243.09;;;19.22;100.00
4858;BME280;58975;51.978;8.472;2022-07-09T09:04:35;101238.81;;;19.11;100.00
4858;BME280;58975;51.978;8.472;2022-07-09T09:09:35;101231.63;;;18.76;100.00
4858;BME280;58975;51.978;8.472;2022-07-09T09:14:32;101235.44;;;18.66;100.00
4858;BME280;58975;51.978;8.472;2022-07-09T09:19:33;101229.84;;;18.50;100.00
4858;BME280;58975;51.978;8.472;2022-07-09T09:24:30;101221.75;;;18.32;100.00
4858;BME280;58975;51.978;8.472;2022-07-09T09:29:27;101218.00;;;18.42;100.00
4858;BME280;58975;51.978;8.472;2022-07-09T09:34:24;101237.97;;;18.67;100.00
4858;BME280;58975;51.978;8.472;2022-07-09T09:39:25;101234.66;;;18.56;100.00
4858;BME280;58975;51.978;8.472;2022-07-09T09:44:27;101226.88;;;18.53;100.00
4858;BME280;58975;51.978;8.472;2022-07-09T09:49:25;101234.28;;;18.94;100.00
4858;BME280;58975;51.978;8.472;2022-07-09T09:54:22;101256.38;;;18.72;100.00
4858;BME280;58975;51.978;8.472;2022-07-09T09:59:19;101259.94;;;18.72;100.00
4858;BME280;58975;51.978;8.472;2022-07-09T10:04:16;101256.34;;;19.07;100.00
4858;BME280;58975;51.978;8.472;2022-07-09T10:09:14;101243.44;;;18.93;100.00
4858;BME280;58975;51.978;8.472;2022-07-09T10:24:27;101244.81;;;19.82;100.00
4858;BME280;58975;51.978;8.472;2022-07-09T10:29:26;101238.00;;;20.12;100.00
4858;BME280;58975;51.978;8.472;2022-07-09T10:39:32;101226.59;;;20.59;100.00
4858;BME280;58975;51.978;8.472;2022-07-09T10:44:40;101230.34;;;20.50;100.00
4858;BME280;58975;51.978;8.472;2022-07-09T10:49:36;101225.25;;;20.71;100.00
4858;BME280;58975;51.978;8.472;2022-07-09T10:54:33;101213.72;;;21.09;100.00
4858;BME280;58975;51.978;8.472;2022-07-09T10:59:30;101204.88;;;21.48;100.00
4858;BME280;58975;51.978;8.472;2022-07-09T11:04:28;101217.38;;;21.49;100.00
4858;BME280;58975;51.978;8.472;2022-07-09T11:09:27;101214.16;;;21.53;100.00
4858;BME280;58975;51.978;8.472;2022-07-09T11:14:24;101212.34;;;21.38;100.00
4858;BME280;58975;51.978;8.472;2022-07-09T11:19:21;101211.94;;;21.57;100.00
4858;BME280;58975;51.978;8.472;2022-07-09T11:24:19;101211.44;;;21.53;100.00
4858;BME280;58975;51.978;8.472;2022-07-09T11:29:17;101209.41;;;22.02;100.00
4858;BME280;58975;51.978;8.472;2022-07-09T11:34:15;101200.81;;;22.22;100.00
4858;BME280;58975;51.978;8.472;2022-07-09T11:39:28;101210.09;;;21.96;100.00
4858;BME280;58975;51.978;8.472;2022-07-09T11:49:31;101189.53;;;21.00;100.00
4858;BME280;58975;51.978;8.472;2022-07-09T11:54:28;101179.00;;;21.68;100.00
4858;BME280;58975;51.978;8.472;2022-07-09T11:59:29;101189.91;;;21.13;100.00
4858;BME280;58975;51.978;8.472;2022-07-09T12:04:30;101183.25;;;21.23;100.00
4858;BME280;58975;51.978;8.472;2022-07-09T12:09:29;101175.22;;;21.46;100.00
4858;BME280;58975;51.978;8.472;2022-07-09T12:14:26;101169.88;;;21.69;100.00
4858;BME280;58975;51.978;8.472;2022-07-09T12:19:23;101177.81;;;22.09;98.05
4858;BME280;58975;51.978;8.472;2022-07-09T12:24:20;101162.50;;;22.16;100.00
4858;BME280;58975;51.978;8.472;2022-07-09T12:29:16;101155.94;;;22.34;100.00
4858;BME280;58975;51.978;8.472;2022-07-09T12:34:13;101157.22;;;22.83;100.00
4858;BME280;58975;51.978;8.472;2022-07-09T12:39:10;101146.28;;;22.91;93.23
4858;BME280;58975;51.978;8.472;2022-07-09T12:44:06;101149.94;;;22.84;100.00
4858;BME280;58975;51.978;8.472;2022-07-09T12:49:03;101123.72;;;22.53;100.00
4858;BME280;58975;51.978;8.472;2022-07-09T12:54:01;101124.94;;;22.88;100.00
4858;BME280;58975;51.978;8.472;2022-07-09T12:58:58;101114.72;;;22.76;80.00
4858;BME280;58975;51.978;8.472;2022-07-09T13:03:54;101119.34;;;22.67;81.34
4858;BME280;58975;51.978;8.472;2022-07-09T13:09:09;101139.25;;;22.59;83.04
4858;BME280;58975;51.978;8.472;2022-07-09T13:14:06;101135.38;;;21.94;90.23
4858;BME280;58975;51.978;8.472;2022-07-09T13:19:04;101126.97;;;21.73;100.00
4858;BME280;58975;51.978;8.472;2022-07-09T13:24:00;101125.88;;;21.90;100.00
4858;BME280;58975;51.978;8.472;2022-07-09T13:28:57;101119.59;;;21.97;99.71
4858;BME280;58975;51.978;8.472;2022-07-09T13:33:53;101117.06;;;22.19;88.27
4858;BME280;58975;51.978;8.472;2022-07-09T13:38:50;101111.72;;;21.80;92.05
4858;BME280;58975;51.978;8.472;2022-07-09T13:43:47;101110.81;;;21.87;100.00
4858;BME280;58975;51.978;8.472;2022-07-09T13:48:44;101101.50;;;22.12;99.23
4858;BME280;58975;51.978;8.472;2022-07-09T13:53:40;101104.31;;;21.96;100.00
4858;BME280;58975;51.978;8.472;2022-07-09T13:58:39;101103.50;;;21.57;100.00
4858;BME280;58975;51.978;8.472;2022-07-09T14:03:35;101106.31;;;21.41;100.00
4858;BME280;58975;51.978;8.472;2022-07-09T14:08:33;101097.16;;;21.42;100.00
4858;BME280;58975;51.978;8.472;2022-07-09T14:13:29;101101.50;;;22.12;100.00
4858;BME280;58975;51.978;8.472;2022-07-09T14:18:27;101102.16;;;22.37;100.00
4858;BME280;58975;51.978;8.472;2022-07-09T14:23:25;101094.44;;;22.03;100.00
4858;BME280;58975;51.978;8.472;2022-07-09T14:28:21;101092.06;;;22.46;100.00
4858;BME280;58975;51.978;8.472;2022-07-09T14:33:18;101094.09;;;22.44;100.00
4858;BME280;58975;51.978;8.472;2022-07-09T14:38:14;101097.25;;;21.87;100.00
4858;BME280;58975;51.978;8.472;2022-07-09T14:43:11;101095.28;;;21.73;100.00
4858;BME280;58975;51.978;8.472;2022-07-09T14:48:08;101089.13;;;22.33;100.00
4858;BME280;58975;51.978;8.472;2022-07-09T14:53:05;101100.47;;;22.13;89.78
4858;BME280;58975;51.978;8.472;2022-07-09T14:58:02;101106.53;;;21.62;94.37
4858;BME280;58975;51.978;8.472;2022-07-09T15:02:59;101082.53;;;22.27;88.63
4858;BME280;58975;51.978;8.472;2022-07-09T15:07:56;101089.75;;;21.97;88.19
4858;BME280;58975;51.978;8.472;2022-07-09T15:12:52;101093.31;;;21.98;76.75
4858;BME280;58975;51.978;8.472;2022-07-09T15:17:48;101095.84;;;21.99;65.49
4858;BME280;58975;51.978;8.472;2022-07-09T15:22:46;101073.09;;;22.23;62.85
4858;BME280;58975;51.978;8.472;2022-07-09T15:27:44;101080.47;;;22.52;67.95
4858;BME280;58975;51.978;8.472;2022-07-09T15:32:40;101079.09;;;22.19;66.58
4858;BME280;58975;51.978;8.472;2022-07-09T15:37:37;101077.28;;;22.11;70.02
4858;BME280;58975;51.978;8.472;2022-07-09T15:42:34;101080.56;;;22.81;79.87
4858;BME280;58975;51.978;8.472;2022-07-09T15:47:30;101075.00;;;21.69;100.00
4858;BME280;58975;51.978;8.472;2022-07-09T15:52:27;101069.72;;;20.90;100.00
4858;BME280;58975;51.978;8.472;2022-07-09T15:57:23;101076.56;;;20.77;100.00
4858;BME280;58975;51.978;8.472;2022-07-09T16:02:20;101058.91;;;20.90;100.00
4858;BME280;58975;51.978;8.472;2022-07-09T16:07:17;101070.09;;;20.87;100.00
4858;BME280;58975;51.978;8.472;2022-07-09T16:12:13;101077.16;;;21.12;100.00
4858;BME280;58975;51.978;8.472;2022-07-09T16:17:28;101072.38;;;21.06;100.00
4858;BME280;58975;51.978;8.472;2022-07-09T16:22:25;101084.91;;;21.07;100.00
4858;BME280;58975;51.978;8.472;2022-07-09T16:27:21;101067.16;;;21.12;100.00
4858;BME280;58975;51.978;8.472;2022-07-09T16:32:18;101076.44;;;21.10;100.00
4858;BME280;58975;51.978;8.472;2022-07-09T16:37:15;101081.84;;;20.39;100.00
4858;BME280;58975;51.978;8.472;2022-07-09T16:42:12;101086.59;;;20.28;100.00
4858;BME280;58975;51.978;8.472;2022-07-09T16:47:08;101090.78;;;19.99;100.00
4858;BME280;58975;51.978;8.472;2022-07-09T16:52:05;101110.50;;;19.75;100.00
4858;BME280;58975;51.978;8.472;2022-07-09T16:57:02;101123.63;;;19.62;100.00
4858;BME280;58975;51.978;8.472;2022-07-09T17:01:58;101109.09;;;19.55;100.00
4858;BME280;58975;51.978;8.472;2022-07-09T17:06:55;101114.31;;;19.48;100.00
4858;BME280;58975;51.978;8.472;2022-07-09T17:11:52;101127.88;;;19.30;100.00
4858;BME280;58975;51.978;8.472;2022-07-09T17:16:48;101127.16;;;19.20;100.00
4858;BME280;58975;51.978;8.472;2022-07-09T17:21:45;101134.41;;;20.20;100.00
4858;BME280;58975;51.978;8.472;2022-07-09T17:26:41;101133.41;;;20.69;100.00
4858;BME280;58975;51.978;8.472;2022-07-09T17:31:38;101139.19;;;21.38;88.96
4858;BME280;58975;51.978;8.472;2022-07-09T17:36:34;101132.69;;;19.45;100.00
4858;BME280;58975;51.978;8.472;2022-07-09T17:41:31;101135.78;;;19.58;100.00
4858;BME280;58975;51.978;8.472;2022-07-09T17:46:27;101153.56;;;19.76;100.00
4858;BME280;58975;51.978;8.472;2022-07-09T17:51:24;101170.38;;;19.20;100.00
4858;BME280;58975;51.978;8.472;2022-07-09T17:56:20;101155.59;;;19.07;100.00
4858;BME280;58975;51.978;8.472;2022-07-09T18:01:17;101165.06;;;19.36;100.00
4858;BME280;58975;51.978;8.472;2022-07-09T18:06:13;101163.50;;;20.74;91.50
4858;BME280;58975;51.978;8.472;2022-07-09T18:11:14;101163.59;;;21.30;77.08
4858;BME280;58975;51.978;8.472;2022-07-09T18:16:10;101171.31;;;20.86;79.56
4858;BME280;58975;51.978;8.472;2022-07-09T18:21:08;101177.69;;;18.23;100.00
4858;BME280;58975;51.978;8.472;2022-07-09T18:26:04;101186.31;;;18.09;100.00
4858;BME280;58975;51.978;8.472;2022-07-09T18:31:00;101177.81;;;17.22;100.00
4858;BME280;58975;51.978;8.472;2022-07-09T18:35:57;101179.59;;;17.04;100.00
4858;BME280;58975;51.978;8.472;2022-07-09T18:41:00;101163.78;;;16.82;100.00
4858;BME280;58975;51.978;8.472;2022-07-09T18:45:57;101190.44;;;16.66;100.00
4858;BME280;58975;51.978;8.472;2022-07-09T18:50:53;101176.56;;;16.61;100.00
4858;BME280;58975;51.978;8.472;2022-07-09T18:55:50;101181.75;;;16.52;100.00
4858;BME280;58975;51.978;8.472;2022-07-09T19:00:46;101183.88;;;16.49;100.00
4858;BME280;58975;51.978;8.472;2022-07-09T19:05:43;101210.19;;;16.55;100.00
4858;BME280;58975;51.978;8.472;2022-07-09T19:10:39;101203.44;;;16.61;100.00
4858;BME280;58975;51.978;8.472;2022-07-09T19:15:36;101204.97;;;16.25;100.00
4858;BME280;58975;51.978;8.472;2022-07-09T19:20:32;101197.44;;;16.09;100.00
4858;BME280;58975;51.978;8.472;2022-07-09T19:25:29;101200.56;;;15.95;100.00
4858;BME280;58975;51.978;8.472;2022-07-09T19:30:25;101218.00;;;15.70;100.00
4858;BME280;58975;51.978;8.472;2022-07-09T19:35:40;101213.66;;;15.48;100.00
4858;BME280;58975;51.978;8.472;2022-07-09T19:40:37;101217.00;;;15.41;100.00
4858;BME280;58975;51.978;8.472;2022-07-09T19:45:33;101227.41;;;15.25;100.00
4858;BME280;58975;51.978;8.472;2022-07-09T19:50:30;101238.06;;;15.15;100.00
4858;BME280;58975;51.978;8.472;2022-07-09T19:55:26;101241.03;;;15.12;100.00
4858;BME280;58975;51.978;8.472;2022-07-09T20:00:22;101243.31;;;14.96;100.00
4858;BME280;58975;51.978;8.472;2022-07-09T20:05:19;101248.34;;;14.89;100.00
4858;BME280;58975;51.978;8.472;2022-07-09T20:10:15;101253.75;;;14.78;100.00
4858;BME280;58975;51.978;8.472;2022-07-09T20:15:12;101253.50;;;14.60;100.00
4858;BME280;58975;51.978;8.472;2022-07-09T20:20:09;101259.50;;;14.53;100.00
4858;BME280;58975;51.978;8.472;2022-07-09T20:25:06;101250.50;;;14.43;100.00
4858;BME280;58975;51.978;8.472;2022-07-09T20:30:03;101242.22;;;14.46;100.00
4858;BME280;58975;51.978;8.472;2022-07-09T20:34:59;101248.66;;;14.54;100.00
4858;BME280;58975;51.978;8.472;2022-07-09T20:39:56;101246.22;;;14.51;100.00
4858;BME280;58975;51.978;8.472;2022-07-09T20:44:52;101245.75;;;14.46;100.00
4858;BME280;58975;51.978;8.472;2022-07-09T20:49:49;101244.06;;;14.45;100.00
4858;BME280;58975;51.978;8.472;2022-07-09T20:54:45;101242.94;;;14.48;100.00
4858;BME280;58975;51.978;8.472;2022-07-09T20:59:42;101243.91;;;14.47;100.00
4858;BME280;58975;51.978;8.472;2022-07-09T21:04:38;101250.13;;;14.47;100.00
4858;BME280;58975;51.978;8.472;2022-07-09T21:09:35;101262.06;;;14.43;100.00
4858;BME280;58975;51.978;8.472;2022-07-09T21:14:31;101264.31;;;14.38;100.00
4858;BME280;58975;51.978;8.472;2022-07-09T21:19:28;101257.09;;;14.28;100.00
4858;BME280;58975;51.978;8.472;2022-07-09T21:24:24;101250.28;;;14.23;100.00
4858;BME280;58975;51.978;8.472;2022-07-09T21:29:21;101242.28;;;14.12;100.00
4858;BME280;58975;51.978;8.472;2022-07-09T21:34:17;101249.97;;;14.06;100.00
4858;BME280;58975;51.978;8.472;2022-07-09T21:39:13;101246.72;;;13.91;100.00
4858;BME280;58975;51.978;8.472;2022-07-09T21:44:10;101244.19;;;13.79;100.00
4858;BME280;58975;51.978;8.472;2022-07-09T21:49:10;101232.28;;;13.71;100.00
4858;BME280;58975;51.978;8.472;2022-07-09T21:54:07;101235.56;;;13.64;100.00
4858;BME280;58975;51.978;8.472;2022-07-09T21:59:03;101224.00;;;13.74;100.00
4858;BME280;58975;51.978;8.472;2022-07-09T22:04:00;101233.47;;;13.79;100.00
4858;BME280;58975;51.978;8.472;2022-07-09T22:08:56;101238.09;;;13.88;100.00
4858;BME280;58975;51.978;8.472;2022-07-09T22:13:53;101226.13;;;13.92;100.00
4858;BME280;58975;51.978;8.472;2022-07-09T22:18:50;101232.13;;;13.95;100.00
4858;BME280;58975;51.978;8.472;2022-07-09T22:23:46;101227.16;;;13.80;100.00
4858;BME280;58975;51.978;8.472;2022-07-09T22:28:42;101215.72;;;13.66;100.00
4858;BME280;58975;51.978;8.472;2022-07-09T22:33:39;101217.81;;;13.63;100.00
4858;BME280;58975;51.978;8.472;2022-07-09T22:38:35;101208.16;;;13.60;100.00
4858;BME280;58975;51.978;8.472;2022-07-09T22:43:32;101211.09;;;13.57;100.00
4858;BME280;58975;51.978;8.472;2022-07-09T22:48:28;101212.09;;;13.56;100.00
4858;BME280;58975;51.978;8.472;2022-07-09T22:53:25;101215.13;;;13.52;100.00
4858;BME280;58975;51.978;8.472;2022-07-09T22:58:21;101222.16;;;13.53;100.00
4858;BME280;58975;51.978;8.472;2022-07-09T23:03:18;101218.03;;;13.49;100.00
4858;BME280;58975;51.978;8.472;2022-07-09T23:08:14;101218.44;;;13.44;100.00
4858;BME280;58975;51.978;8.472;2022-07-09T23:13:30;101208.19;;;13.38;100.00
4858;BME280;58975;51.978;8.472;2022-07-09T23:18:27;101209.41;;;13.34;100.00
4858;BME280;58975;51.978;8.472;2022-07-09T23:23:23;101204.31;;;13.31;100.00
4858;BME280;58975;51.978;8.472;2022-07-09T23:28:19;101191.19;;;13.28;100.00
4858;BME280;58975;51.978;8.472;2022-07-09T23:33:16;101189.84;;;13.34;100.00
4858;BME280;58975;51.978;8.472;2022-07-09T23:38:13;101201.03;;;13.39;100.00
4858;BME280;58975;51.978;8.472;2022-07-09T23:43:10;101195.19;;;13.34;100.00
4858;BME280;58975;51.978;8.472;2022-07-09T23:48:06;101183.41;;;13.36;100.00
4858;BME280;58975;51.978;8.472;2022-07-09T23:53:02;101189.22;;;13.30;100.00
4858;BME280;58975;51.978;8.472;2022-07-09T23:57:59;101180.47;;;13.28;100.00
